Terminal Aerodrome Forecast
Issued by NWS Blacksburg, VA

Current Version | Previous Version | Text Only | Print | Product List | Glossary Off
Versions: 1 2 3 4 5 6 7 8 9 10 11 12

000
FTUS41 KRNK 241136
TAFBLF
TAF
KBLF 241136Z 2412/2512 17006KT P6SM OVC080
     FM241500 22008G16KT P6SM BKN060 OVC200
     FM241800 22009G17KT P6SM BKN050 OVC200
     FM250100 22006KT P6SM BKN045 OVC200=

USA.gov is the U.S. government's official web portal to all federal, state and local government web resources and services.